Nortonville, Kentucky
Current Conditions -  °F | °C
As of 4:55 PM on Friday 28 Nov 2014 (Local Time) from K2I0 Reporting Station
Clear Clear  
Wind Chill: 38°   Ceiling: Unl
Heat Index: 43°   Visibility: 10mi
Dew Point: 28°   Wind: 8mph
Humidity: 55%   Direction: 170°S
Pressure: 30.13"   Gusts: NA
Location:  37.19°N, 87.45°W
Report Text: K2I0 282255Z AUTO 17007KT 10SM CLR 06/M02 A3013 RMK AO2 T00611023
Loading
Personal Weather Stations






























Interactive Weather Map New forecast layout! Learn more

10-Day Weather Forecast

Advertisements
Track Severe Weather on mobile